createdAt,value
2022-12-18T00:01:30.205Z,102735.06
2022-12-18T00:03:58.365Z,102731.41
2022-12-18T00:06:28.676Z,102736.41
2022-12-18T00:08:58.622Z,102739.00
2022-12-18T00:11:30.213Z,102737.13
2022-12-18T00:13:59.174Z,102738.47
2022-12-18T00:16:29.289Z,102733.13
2022-12-18T00:18:58.987Z,102735.59
2022-12-18T00:21:28.539Z,102740.53
2022-12-18T00:23:56.306Z,102741.97
2022-12-18T00:26:29.136Z,102736.53
2022-12-18T00:29:14.755Z,102731.66
2022-12-18T00:31:44.693Z,102730.47
2022-12-18T00:34:14.660Z,102726.03
2022-12-18T00:36:42.582Z,102725.03
2022-12-18T00:39:13.218Z,102718.09
2022-12-18T00:41:59.191Z,102718.78
2022-12-18T00:44:26.670Z,102727.25
2022-12-18T00:46:54.124Z,102721.34
2022-12-18T00:49:22.092Z,102723.91
2022-12-18T00:51:50.332Z,102727.47
2022-12-18T00:54:18.823Z,102719.91
2022-12-18T00:56:49.228Z,102718.91
2022-12-18T00:59:18.995Z,102714.44
2022-12-18T01:01:47.936Z,102714.44
2022-12-18T01:04:16.039Z,102717.72
2022-12-18T01:06:46.442Z,102723.53
2022-12-18T01:09:14.503Z,102721.72
2022-12-18T01:11:41.954Z,102724.09
2022-12-18T01:14:09.576Z,102726.34
2022-12-18T01:16:38.717Z,102724.13
2022-12-18T01:19:06.267Z,102713.44
2022-12-18T01:21:34.454Z,102715.88
2022-12-18T01:24:05.957Z,102729.50
2022-12-18T01:26:33.716Z,102738.94
2022-12-18T01:29:01.213Z,102742.31
2022-12-18T01:31:34.050Z,102735.63
2022-12-18T01:34:08.125Z,102731.25
2022-12-18T01:36:41.230Z,102726.13
2022-12-18T01:39:14.582Z,102721.94
2022-12-18T01:42:01.936Z,102722.81
2022-12-18T01:45:03.132Z,102725.13
2022-12-18T01:47:47.565Z,102709.56
2022-12-18T01:50:20.846Z,102718.69
2022-12-18T01:52:54.487Z,102717.69
2022-12-18T01:55:29.016Z,102734.88
2022-12-18T01:58:00.363Z,102729.63
2022-12-18T02:00:29.116Z,102714.16
2022-12-18T02:02:57.533Z,102718.38
2022-12-18T02:06:06.729Z,102712.38
2022-12-18T02:09:12.037Z,102713.94
2022-12-18T02:11:48.415Z,102722.28
2022-12-18T02:14:45.477Z,102719.50
2022-12-18T02:17:43.897Z,102722.84
2022-12-18T02:20:28.916Z,102724.41
2022-12-18T02:23:34.110Z,102719.84
2022-12-18T02:26:31.927Z,102715.06
2022-12-18T02:29:28.934Z,102718.75
2022-12-18T02:32:05.524Z,102710.75
2022-12-18T02:34:39.299Z,102706.41
2022-12-18T02:37:17.137Z,102710.75
2022-12-18T02:39:49.470Z,102714.19
2022-12-18T02:42:19.610Z,102719.44
2022-12-18T02:44:51.916Z,102716.06
2022-12-18T02:47:37.020Z,102715.19
2022-12-18T02:50:35.594Z,102710.84
2022-12-18T02:53:21.954Z,102712.31
2022-12-18T02:56:10.840Z,102699.41
2022-12-18T02:59:00.112Z,102700.06
2022-12-18T03:02:01.117Z,102696.50
2022-12-18T03:04:41.117Z,102693.72
2022-12-18T03:07:18.520Z,102685.72
2022-12-18T03:09:52.813Z,102689.84
2022-12-18T03:12:37.608Z,102682.72
2022-12-18T03:15:18.143Z,102684.28
2022-12-18T03:18:07.595Z,102689.16
2022-12-18T03:20:40.911Z,102699.16
2022-12-18T03:23:16.184Z,102707.59
2022-12-18T03:25:52.187Z,102690.63
2022-12-18T03:28:23.545Z,102698.28
2022-12-18T03:31:02.062Z,102701.59
2022-12-18T03:33:48.190Z,102706.59
2022-12-18T03:36:16.500Z,102692.06
2022-12-18T03:38:44.144Z,102689.63
2022-12-18T03:41:34.654Z,102689.69
2022-12-18T03:45:08.973Z,102685.38
2022-12-18T03:48:00.454Z,102679.38
2022-12-18T03:50:49.800Z,102672.59
2022-12-18T03:53:36.504Z,102667.47
2022-12-18T03:56:06.375Z,102663.13
2022-12-18T03:58:41.583Z,102659.81
2022-12-18T04:01:23.481Z,102654.69
2022-12-18T04:03:53.859Z,102646.22
2022-12-18T04:06:22.617Z,102642.91
2022-12-18T04:08:50.422Z,102644.78
2022-12-18T04:11:22.305Z,102650.91
2022-12-18T04:13:49.837Z,102645.91
2022-12-18T04:16:23.537Z,102640.78
2022-12-18T04:18:55.156Z,102648.47
2022-12-18T04:21:25.262Z,102641.53
2022-12-18T04:23:53.714Z,102640.91
2022-12-18T04:26:23.735Z,102640.91
2022-12-18T04:29:17.352Z,102630.00
2022-12-18T04:31:44.797Z,102619.88
2022-12-18T04:34:12.630Z,102624.06
2022-12-18T04:36:48.165Z,102626.63
2022-12-18T04:39:16.310Z,102621.53
2022-12-18T04:41:48.802Z,102614.63
2022-12-18T04:44:16.266Z,102621.53
2022-12-18T04:46:44.157Z,102619.06
2022-12-18T04:49:11.822Z,102622.44
2022-12-18T04:51:39.616Z,102632.66
2022-12-18T04:54:07.097Z,102629.31
2022-12-18T04:56:35.164Z,102638.00
2022-12-18T04:59:02.801Z,102628.63
2022-12-18T05:01:34.479Z,102631.19
2022-12-18T05:04:03.781Z,102637.31
2022-12-18T05:06:31.308Z,102637.31
2022-12-18T05:08:58.825Z,102649.34
2022-12-18T05:11:28.168Z,102653.66
2022-12-18T05:13:55.578Z,102656.22
2022-12-18T05:16:23.106Z,102669.94
2022-12-18T05:18:50.560Z,102676.94
2022-12-18T05:21:18.060Z,102688.94
2022-12-18T05:23:45.479Z,102683.03
2022-12-18T05:26:18.712Z,102689.84
2022-12-18T05:28:46.957Z,102684.47
2022-12-18T05:31:15.746Z,102681.81
2022-12-18T05:33:43.890Z,102674.69
2022-12-18T05:36:12.363Z,102682.16
2022-12-18T05:38:40.274Z,102676.72
2022-12-18T05:41:09.370Z,102672.25
2022-12-18T05:43:40.183Z,102672.25
2022-12-18T05:46:12.828Z,102675.81
2022-12-18T05:48:40.428Z,102675.03
2022-12-18T05:51:15.545Z,102664.69
2022-12-18T05:53:44.197Z,102653.34
2022-12-18T05:56:23.727Z,102657.44
2022-12-18T05:58:55.468Z,102653.00
2022-12-18T06:01:27.224Z,102652.88
2022-12-18T06:03:56.312Z,102642.56
2022-12-18T06:06:27.531Z,102646.00
2022-12-18T06:08:56.302Z,102638.34
2022-12-18T06:11:27.651Z,102641.09
2022-12-18T06:13:59.083Z,102619.00
2022-12-18T06:16:28.941Z,102615.97
2022-12-18T06:19:01.972Z,102611.28
2022-12-18T06:21:30.465Z,102614.19
2022-12-18T06:23:59.298Z,102620.63
2022-12-18T06:26:28.577Z,102619.28
2022-12-18T06:28:56.369Z,102626.50
2022-12-18T06:31:23.990Z,102626.81
2022-12-18T06:33:51.576Z,102622.81
2022-12-18T06:36:19.247Z,102618.00
2022-12-18T06:38:46.669Z,102607.88
2022-12-18T06:41:21.183Z,102617.56
2022-12-18T06:43:48.742Z,102609.19
2022-12-18T06:46:16.430Z,102607.63
2022-12-18T06:48:43.866Z,102605.19
2022-12-18T06:51:11.342Z,102599.38
2022-12-18T06:53:39.135Z,102589.13
2022-12-18T06:56:10.623Z,102594.25
2022-12-18T06:58:41.983Z,102604.59
2022-12-18T07:01:12.408Z,102604.72
2022-12-18T07:03:42.502Z,102597.22
2022-12-18T07:06:22.577Z,102600.03
2022-12-18T07:08:50.951Z,102595.31
2022-12-18T07:11:19.417Z,102593.94
2022-12-18T07:13:47.492Z,102585.03
2022-12-18T07:16:24.797Z,102582.09
2022-12-18T07:18:56.194Z,102586.84
2022-12-18T07:21:25.235Z,102589.88
2022-12-18T07:23:52.781Z,102583.50
2022-12-18T07:26:22.574Z,102581.44
2022-12-18T07:28:50.869Z,102580.94
2022-12-18T07:31:22.560Z,102576.94
2022-12-18T07:33:51.974Z,102576.34
2022-12-18T07:36:20.326Z,102580.88
2022-12-18T07:38:52.527Z,102575.88
2022-12-18T07:41:21.271Z,102567.47
2022-12-18T07:43:49.404Z,102572.00
2022-12-18T07:46:17.384Z,102572.31
2022-12-18T07:48:49.504Z,102558.72
2022-12-18T07:51:19.662Z,102555.56
2022-12-18T07:53:48.784Z,102546.19
2022-12-18T07:56:29.416Z,102537.91
2022-12-18T07:58:58.599Z,102540.63
2022-12-18T08:01:26.899Z,102537.41
2022-12-18T08:03:54.624Z,102544.50
2022-12-18T08:06:22.562Z,102535.31
2022-12-18T08:08:56.772Z,102528.00
2022-12-18T08:11:27.289Z,102524.06
2022-12-18T08:13:55.344Z,102533.72
2022-12-18T08:16:24.603Z,102529.75
2022-12-18T08:18:54.352Z,102528.38
2022-12-18T08:21:27.752Z,102535.66
2022-12-18T08:23:58.509Z,102529.91
2022-12-18T08:26:29.792Z,102531.97
2022-12-18T08:28:59.511Z,102519.41
2022-12-18T08:31:29.388Z,102531.75
2022-12-18T08:33:57.936Z,102523.53
2022-12-18T08:36:26.369Z,102531.72
2022-12-18T08:38:54.953Z,102521.88
2022-12-18T08:41:22.841Z,102516.34
2022-12-18T08:44:09.356Z,102518.31
2022-12-18T08:46:43.283Z,102528.06
2022-12-18T08:49:12.821Z,102539.59
2022-12-18T08:51:41.107Z,102537.28
2022-12-18T08:54:12.759Z,102523.91
2022-12-18T08:56:40.182Z,102530.19
2022-12-18T08:59:07.605Z,102513.38
2022-12-18T09:01:35.518Z,102516.09
2022-12-18T09:04:04.611Z,102509.66
2022-12-18T09:06:34.181Z,102509.13
2022-12-18T09:09:02.112Z,102509.41
2022-12-18T09:11:31.314Z,102512.47
2022-12-18T09:14:01.525Z,102512.84
2022-12-18T09:16:32.565Z,102513.28
2022-12-18T09:19:01.966Z,102507.59
2022-12-18T09:21:42.210Z,102495.09
2022-12-18T09:24:15.248Z,102497.91
2022-12-18T09:26:46.885Z,102513.59
2022-12-18T09:29:18.988Z,102520.78
2022-12-18T09:31:46.973Z,102527.00
2022-12-18T09:34:14.500Z,102523.84
2022-12-18T09:36:41.931Z,102516.56
2022-12-18T09:39:11.184Z,102527.19
2022-12-18T09:41:48.428Z,102511.19
2022-12-18T09:44:37.744Z,102508.97
2022-12-18T09:47:26.755Z,102504.94
2022-12-18T09:50:02.914Z,102500.06
2022-12-18T09:52:49.155Z,102500.38
2022-12-18T09:55:40.702Z,102504.06
2022-12-18T09:58:25.715Z,102505.13
2022-12-18T10:00:54.517Z,102509.72
2022-12-18T10:03:23.134Z,102492.91
2022-12-18T10:06:19.512Z,102484.66
2022-12-18T10:08:56.702Z,102475.50
2022-12-18T10:11:50.084Z,102468.88
2022-12-18T10:14:23.527Z,102464.94
2022-12-18T10:17:12.174Z,102454.94
2022-12-18T10:19:55.504Z,102456.94
2022-12-18T10:22:44.005Z,102454.66
2022-12-18T10:25:24.992Z,102456.66
2022-12-18T10:28:13.127Z,102461.34
2022-12-18T10:30:43.027Z,102458.97
2022-12-18T10:33:20.194Z,102461.94
2022-12-18T10:35:51.476Z,102473.44
2022-12-18T10:38:18.892Z,102474.53
2022-12-18T10:40:55.199Z,102467.09
2022-12-18T10:43:26.378Z,102461.22
2022-12-18T10:46:17.949Z,102458.84
2022-12-18T10:48:53.873Z,102454.66
2022-12-18T10:51:34.757Z,102442.84
2022-12-18T10:54:15.768Z,102428.28
2022-12-18T10:56:44.259Z,102427.53
2022-12-18T10:59:16.104Z,102420.81
2022-12-18T11:01:58.865Z,102419.41
2022-12-18T11:04:31.060Z,102407.53
2022-12-18T11:07:09.926Z,102403.53
2022-12-18T11:09:40.760Z,102389.94
2022-12-18T11:12:11.175Z,102382.34
2022-12-18T11:14:54.689Z,102387.66
2022-12-18T11:17:36.939Z,102387.72
2022-12-18T11:20:25.066Z,102386.97
2022-12-18T11:23:01.004Z,102373.38
2022-12-18T11:25:33.540Z,102378.66
2022-12-18T11:28:34.932Z,102373.66
2022-12-18T11:31:28.746Z,102377.28
2022-12-18T11:34:30.645Z,102368.78
2022-12-18T11:37:01.967Z,102358.72
2022-12-18T11:39:50.711Z,102361.56
2022-12-18T11:42:28.916Z,102368.56
2022-12-18T11:45:10.544Z,102375.75
2022-12-18T11:47:51.453Z,102382.00
2022-12-18T11:50:26.675Z,102389.91
2022-12-18T11:52:58.268Z,102377.09
2022-12-18T11:55:50.866Z,102371.31
2022-12-18T11:58:52.558Z,102363.56
2022-12-18T12:01:45.681Z,102351.59
2022-12-18T12:04:40.521Z,102356.16
2022-12-18T12:07:35.747Z,102349.47
2022-12-18T12:10:40.488Z,102357.41
2022-12-18T12:13:56.052Z,102340.25
2022-12-18T12:16:35.791Z,102331.53
2022-12-18T12:19:42.145Z,102327.28
2022-12-18T12:22:24.490Z,102323.00
2022-12-18T12:25:13.100Z,102319.56
2022-12-18T12:28:16.705Z,102317.94
2022-12-18T12:31:08.543Z,102316.28
2022-12-18T12:33:57.714Z,102315.66
2022-12-18T12:37:02.600Z,102292.47
2022-12-18T12:39:40.615Z,102315.81
2022-12-18T12:42:43.731Z,102308.09
2022-12-18T12:45:25.119Z,102294.28
2022-12-18T12:47:55.786Z,102289.97
2022-12-18T12:50:24.609Z,102285.75
2022-12-18T12:57:48.409Z,102275.44
2022-12-18T13:01:58.514Z,102276.34
2022-12-18T13:05:02.518Z,102260.84
2022-12-18T13:08:40.166Z,102260.69
2022-12-18T13:12:08.051Z,102252.84
2022-12-18T13:14:40.767Z,102245.06
2022-12-18T13:17:22.024Z,102245.31
2022-12-18T13:20:05.609Z,102235.84
2022-12-18T13:22:41.443Z,102232.41
2022-12-18T13:26:01.455Z,102233.34
2022-12-18T13:38:27.161Z,102221.28
2022-12-18T13:41:08.669Z,102224.78
2022-12-18T13:44:18.091Z,102224.91
2022-12-18T13:47:58.922Z,102224.78
2022-12-18T13:54:41.959Z,102229.97
2022-12-18T13:57:32.182Z,102223.97
2022-12-18T14:00:32.166Z,102217.13
2022-12-18T14:07:48.336Z,102205.13
2022-12-18T14:11:40.664Z,102198.25
2022-12-18T14:19:03.294Z,102202.47
2022-12-18T14:21:54.588Z,102195.59
2022-12-18T14:24:36.500Z,102195.50
2022-12-18T14:27:34.339Z,102180.84
2022-12-18T14:38:28.002Z,102192.00
2022-12-18T14:41:26.369Z,102191.13
2022-12-18T14:44:07.217Z,102192.00
2022-12-18T14:47:39.018Z,102192.00
2022-12-18T14:49:49.814Z,102181.47
2022-12-18T14:52:55.456Z,102176.44
2022-12-18T14:55:52.937Z,102183.19
2022-12-18T14:58:23.378Z,102180.59
2022-12-18T15:00:51.313Z,102170.34
2022-12-18T15:03:39.320Z,102178.97
2022-12-18T15:07:21.486Z,102171.03
2022-12-18T15:10:17.531Z,102175.22
2022-12-18T15:13:20.509Z,102163.09
2022-12-18T15:15:49.771Z,102169.91
2022-12-18T15:18:23.975Z,102170.84
2022-12-18T15:21:00.267Z,102159.63
2022-12-18T15:24:01.850Z,102152.75
2022-12-18T15:26:40.190Z,102150.88
2022-12-18T15:29:47.156Z,102153.44
2022-12-18T15:32:33.651Z,102157.56
2022-12-18T15:35:25.142Z,102152.50
2022-12-18T15:38:06.870Z,102157.56
2022-12-18T15:40:38.914Z,102156.69
2022-12-18T15:43:29.481Z,102166.97
2022-12-18T15:46:02.921Z,102166.13
2022-12-18T15:52:56.396Z,102157.44
2022-12-18T15:55:48.850Z,102154.06
2022-12-18T15:58:22.873Z,102154.94
2022-12-18T16:01:18.477Z,102148.94
2022-12-18T16:16:43.728Z,102135.78
2022-12-18T16:19:11.228Z,102131.50
2022-12-18T16:21:38.938Z,102125.50
2022-12-18T16:24:10.195Z,102121.16
2022-12-18T16:26:37.615Z,102124.63
2022-12-18T16:29:05.058Z,102117.75
2022-12-18T16:31:34.169Z,102110.88
2022-12-18T16:34:24.967Z,102105.72
2022-12-18T16:37:04.806Z,102110.81
2022-12-18T16:39:37.367Z,102104.81
2022-12-18T16:42:17.344Z,102097.97
2022-12-18T16:44:46.254Z,102108.25
2022-12-18T16:47:14.898Z,102101.28
2022-12-18T16:49:45.847Z,102100.50
2022-12-18T16:52:14.591Z,102090.16
2022-12-18T16:54:42.136Z,102100.50
2022-12-18T16:57:15.093Z,102089.28
2022-12-18T16:59:42.609Z,102090.97
2022-12-18T17:06:16.027Z,102078.00
2022-12-18T17:10:04.397Z,102075.34
2022-12-18T17:25:33.419Z,102060.44
2022-12-18T17:40:40.653Z,102083.66
2022-12-18T17:43:08.353Z,102077.72
2022-12-18T17:58:37.615Z,102076.94
2022-12-18T18:01:18.186Z,102073.53
2022-12-18T18:03:47.950Z,102075.41
2022-12-18T18:06:18.465Z,102075.53
2022-12-18T18:08:45.961Z,102082.50
2022-12-18T18:11:37.838Z,102078.28
2022-12-18T18:14:11.001Z,102079.81
2022-12-18T18:16:48.048Z,102078.97
2022-12-18T18:19:22.729Z,102073.09
2022-12-18T18:21:53.553Z,102074.88
2022-12-18T18:24:23.669Z,102083.34
2022-12-18T18:26:51.154Z,102085.09
2022-12-18T18:29:26.599Z,102084.34
2022-12-18T18:31:54.840Z,102072.28
2022-12-18T18:34:25.741Z,102076.75
2022-12-18T18:36:53.470Z,102075.91
2022-12-18T18:39:21.190Z,102064.75
2022-12-18T18:41:48.897Z,102067.41
2022-12-18T18:44:18.557Z,102070.03
2022-12-18T18:46:46.630Z,102066.63
2022-12-18T18:49:15.186Z,102068.38
2022-12-18T18:51:42.677Z,102067.56
2022-12-18T18:54:10.934Z,102059.88
2022-12-18T18:57:11.643Z,102058.97
2022-12-18T18:59:30.370Z,102059.91
2022-12-18T19:02:04.075Z,102058.16
2022-12-18T19:04:33.949Z,102059.09
2022-12-18T19:07:04.047Z,102059.09
2022-12-18T19:09:55.552Z,102053.94
2022-12-18T19:27:51.964Z,102047.91
2022-12-18T19:30:30.604Z,102042.75
2022-12-18T19:38:07.709Z,102048.13
2022-12-18T19:46:07.477Z,102061.06
2022-12-18T19:50:07.573Z,102050.91
2022-12-18T19:52:36.023Z,102058.63
2022-12-18T19:55:04.156Z,102063.88
2022-12-18T19:57:32.184Z,102066.59
2022-12-18T19:59:59.594Z,102057.13
2022-12-18T20:02:27.227Z,102052.00
2022-12-18T20:04:54.811Z,102058.94
2022-12-18T20:07:22.416Z,102056.34
2022-12-18T20:09:53.897Z,102057.25
2022-12-18T20:12:27.622Z,102058.06
2022-12-18T20:14:58.162Z,102053.72
2022-12-18T20:17:25.936Z,102055.41
2022-12-18T20:19:53.466Z,102052.00
2022-12-18T20:22:21.795Z,102052.00
2022-12-18T20:24:50.772Z,102050.34
2022-12-18T20:27:19.659Z,102060.69
2022-12-18T20:29:48.539Z,102052.94
2022-12-18T20:32:20.662Z,102051.22
2022-12-18T20:34:48.291Z,102062.44
2022-12-18T20:37:16.089Z,102055.47
2022-12-18T20:39:44.308Z,102051.16
2022-12-18T20:42:11.791Z,102055.53
2022-12-18T20:44:39.268Z,102050.34
2022-12-18T20:47:12.656Z,102063.34
2022-12-18T20:49:40.141Z,102062.41
2022-12-18T20:52:12.888Z,102053.75
2022-12-18T20:54:40.396Z,102059.84
2022-12-18T20:57:07.968Z,102059.06
2022-12-18T20:59:40.849Z,102053.88
2022-12-18T21:02:13.611Z,102046.19
2022-12-18T21:04:41.214Z,102041.88
2022-12-18T21:07:08.780Z,102032.34
2022-12-18T21:09:38.489Z,102045.28
2022-12-18T21:12:35.074Z,102041.00
2022-12-18T21:15:10.325Z,102044.31
2022-12-18T21:17:44.170Z,102032.25
2022-12-18T21:20:18.146Z,102028.81
2022-12-18T21:22:47.074Z,102010.72
2022-12-18T21:25:14.556Z,102017.59
2022-12-18T21:27:41.937Z,102008.97
2022-12-18T21:30:09.956Z,102006.41
2022-12-18T21:32:37.380Z,102007.22
2022-12-18T21:35:05.355Z,102010.63
2022-12-18T21:37:32.875Z,102004.63
2022-12-18T21:40:00.260Z,102006.41
2022-12-18T21:42:46.373Z,101990.88
2022-12-18T21:45:15.106Z,101996.06
2022-12-18T21:47:45.548Z,101992.59
2022-12-18T21:50:13.053Z,101996.06
2022-12-18T21:52:40.707Z,101990.03
2022-12-18T21:55:10.935Z,101989.22
2022-12-18T21:57:39.339Z,101984.06
2022-12-18T22:00:17.440Z,101991.81
2022-12-18T22:02:48.859Z,101986.63
2022-12-18T22:05:38.305Z,101984.88
2022-12-18T22:08:08.051Z,101977.94
2022-12-18T22:10:37.079Z,101977.16
2022-12-18T22:13:06.476Z,101968.59
2022-12-18T22:15:34.051Z,101965.16
2022-12-18T22:18:01.636Z,101955.69
2022-12-18T22:20:30.136Z,101947.94
2022-12-18T22:22:58.618Z,101949.66
2022-12-18T22:25:26.954Z,101948.78
2022-12-18T22:28:16.178Z,101943.53
2022-12-18T22:30:43.751Z,101938.44
2022-12-18T22:33:11.429Z,101936.78
2022-12-18T22:35:38.858Z,101926.50
2022-12-18T22:38:06.553Z,101916.16
2022-12-18T22:40:33.973Z,101920.47
2022-12-18T22:43:01.536Z,101909.25
2022-12-18T22:45:29.062Z,101908.38
2022-12-18T22:47:59.155Z,101896.22
2022-12-18T22:50:27.706Z,101897.94
2022-12-18T22:52:55.115Z,101889.31
2022-12-18T22:55:22.577Z,101887.59
2022-12-18T22:57:50.879Z,101888.47
2022-12-18T23:00:20.137Z,101895.28
2022-12-18T23:03:00.434Z,101888.44
2022-12-18T23:05:30.642Z,101881.53
2022-12-18T23:07:59.269Z,101872.94
2022-12-18T23:10:27.403Z,101878.13
2022-12-18T23:12:54.906Z,101862.59
2022-12-18T23:15:27.588Z,101848.84
2022-12-18T23:17:58.664Z,101843.63
2022-12-18T23:20:28.370Z,101835.91
2022-12-18T23:22:55.764Z,101842.03
2022-12-18T23:25:23.288Z,101824.00
2022-12-18T23:27:51.007Z,101824.91
2022-12-18T23:30:19.037Z,101822.44
2022-12-18T23:32:46.468Z,101809.59
2022-12-18T23:35:15.639Z,101813.09
2022-12-18T23:38:00.513Z,101810.50
2022-12-18T23:40:29.969Z,101816.53
2022-12-18T23:43:00.105Z,101828.63
2022-12-18T23:45:27.921Z,101829.56
2022-12-18T23:47:55.372Z,101815.81
2022-12-18T23:50:28.756Z,101807.19
2022-12-18T23:52:57.107Z,101800.34
2022-12-18T23:55:30.557Z,101795.25
2022-12-18T23:57:57.962Z,101808.22
